createdAt,value
2023-03-08T00:01:24.829Z,8.40
2023-03-08T00:03:56.217Z,7.70
2023-03-08T00:06:24.143Z,7.70
2023-03-08T00:08:50.803Z,7.55
2023-03-08T00:11:18.165Z,8.23
2023-03-08T00:13:44.863Z,7.68
2023-03-08T00:16:13.750Z,8.02
2023-03-08T00:18:40.844Z,8.02
2023-03-08T00:21:18.606Z,7.63
2023-03-08T00:23:45.935Z,7.88
2023-03-08T00:26:12.959Z,7.93
2023-03-08T00:28:40.461Z,7.15
2023-03-08T00:31:10.504Z,7.57
2023-03-08T00:33:37.163Z,8.02
2023-03-08T00:36:18.200Z,8.02
2023-03-08T00:38:45.082Z,7.32
2023-03-08T00:41:11.650Z,7.57
2023-03-08T00:43:38.360Z,8.52
2023-03-08T00:46:06.083Z,7.65
2023-03-08T00:48:32.605Z,8.00
2023-03-08T00:51:00.052Z,8.07
2023-03-08T00:53:26.641Z,8.32
2023-03-08T00:55:56.033Z,8.50
2023-03-08T00:58:24.610Z,8.52
2023-03-08T01:00:51.593Z,7.85
2023-03-08T01:03:19.731Z,8.30
2023-03-08T01:05:49.393Z,8.48
2023-03-08T01:08:17.406Z,7.95
2023-03-08T01:10:52.661Z,8.52
2023-03-08T01:13:20.565Z,8.35
2023-03-08T01:15:47.598Z,8.07
2023-03-08T01:18:14.647Z,8.25
2023-03-08T01:20:41.229Z,8.63
2023-03-08T01:23:08.294Z,8.50
2023-03-08T01:25:34.865Z,8.35
2023-03-08T01:28:01.618Z,9.00
2023-03-08T01:30:28.197Z,8.52
2023-03-08T01:32:54.807Z,8.45
2023-03-08T01:35:21.346Z,8.55
2023-03-08T01:37:53.599Z,8.25
2023-03-08T01:40:20.593Z,8.63
2023-03-08T01:42:47.276Z,9.23
2023-03-08T01:45:51.175Z,9.05
2023-03-08T01:48:19.067Z,9.25
2023-03-08T01:50:46.428Z,9.82
2023-03-08T01:53:13.525Z,10.02
2023-03-08T01:55:40.402Z,10.52
2023-03-08T01:58:07.015Z,10.63
2023-03-08T02:00:33.750Z,10.00
2023-03-08T02:03:04.166Z,11.00
2023-03-08T02:05:30.999Z,10.55
2023-03-08T02:07:57.551Z,10.80
2023-03-08T02:10:24.179Z,11.23
2023-03-08T02:12:51.142Z,11.52
2023-03-08T02:15:20.320Z,11.52
2023-03-08T02:17:47.821Z,11.80
2023-03-08T02:20:20.709Z,11.38
2023-03-08T02:22:47.724Z,11.02
2023-03-08T02:25:24.047Z,12.15
2023-03-08T02:27:52.688Z,13.27
2023-03-08T02:30:25.902Z,11.38
2023-03-08T02:32:52.490Z,11.65
2023-03-08T02:35:19.113Z,12.38
2023-03-08T02:37:45.645Z,12.32
2023-03-08T02:40:12.733Z,13.32
2023-03-08T02:42:39.260Z,13.40
2023-03-08T02:45:06.593Z,12.57
2023-03-08T02:47:33.482Z,12.80
2023-03-08T02:50:00.109Z,12.77
2023-03-08T02:52:26.855Z,12.73
2023-03-08T02:54:53.973Z,12.40
2023-03-08T02:57:21.111Z,12.43
2023-03-08T02:59:47.642Z,12.32
2023-03-08T03:02:14.238Z,13.48
2023-03-08T03:04:40.870Z,14.10
2023-03-08T03:07:07.417Z,13.63
2023-03-08T03:09:35.769Z,12.82
2023-03-08T03:12:02.595Z,12.38
2023-03-08T03:14:29.202Z,13.65
2023-03-08T03:16:55.724Z,13.55
2023-03-08T03:19:22.299Z,13.50
2023-03-08T03:21:48.799Z,12.63
2023-03-08T03:24:15.439Z,12.65
2023-03-08T03:26:42.019Z,12.98
2023-03-08T03:29:08.557Z,13.18
2023-03-08T03:31:35.137Z,13.18
2023-03-08T03:34:01.741Z,13.88
2023-03-08T03:36:28.461Z,12.90
2023-03-08T03:38:55.486Z,13.63
2023-03-08T03:41:23.550Z,14.18
2023-03-08T03:43:50.534Z,13.57
2023-03-08T03:46:19.332Z,14.82
2023-03-08T03:48:46.214Z,14.95
2023-03-08T03:51:20.890Z,15.05
2023-03-08T03:53:48.523Z,13.88
2023-03-08T03:56:19.188Z,14.05
2023-03-08T03:58:46.718Z,14.85
2023-03-08T04:01:30.929Z,14.65
2023-03-08T04:03:58.218Z,14.60
2023-03-08T04:06:27.799Z,15.63
2023-03-08T04:08:57.051Z,14.18
2023-03-08T04:11:26.424Z,14.95
2023-03-08T04:13:53.027Z,16.05
2023-03-08T04:16:29.429Z,15.20
2023-03-08T04:18:58.758Z,15.45
2023-03-08T04:21:25.637Z,15.30
2023-03-08T04:23:52.883Z,15.75
2023-03-08T04:26:20.023Z,16.85
2023-03-08T04:28:46.688Z,15.90
2023-03-08T04:31:16.295Z,15.07
2023-03-08T04:33:43.818Z,14.25
2023-03-08T04:36:10.462Z,13.90
2023-03-08T04:38:37.106Z,12.88
2023-03-08T04:41:13.102Z,12.35
2023-03-08T04:43:53.975Z,12.07
2023-03-08T04:46:24.800Z,11.55
2023-03-08T04:48:54.094Z,12.35
2023-03-08T04:51:21.186Z,11.95
2023-03-08T04:53:47.861Z,11.15
2023-03-08T04:56:16.521Z,11.35
2023-03-08T04:58:43.902Z,11.30
2023-03-08T05:01:17.855Z,11.45
2023-03-08T05:03:45.089Z,10.82
2023-03-08T05:06:14.222Z,10.65
2023-03-08T05:08:41.085Z,10.95
2023-03-08T05:11:07.599Z,10.57
2023-03-08T05:13:36.911Z,10.68
2023-03-08T05:16:05.471Z,9.93
2023-03-08T05:18:32.293Z,11.55
2023-03-08T05:21:01.480Z,11.32
2023-03-08T05:23:29.087Z,9.95
2023-03-08T05:25:57.408Z,12.05
2023-03-08T05:28:25.982Z,11.27
2023-03-08T05:31:07.057Z,11.23
2023-03-08T05:33:35.511Z,11.45
2023-03-08T05:36:03.009Z,10.80
2023-03-08T05:38:29.686Z,11.32
2023-03-08T05:41:04.275Z,11.23
2023-03-08T05:43:31.225Z,11.30
2023-03-08T05:46:10.637Z,10.52
2023-03-08T05:48:37.860Z,11.68
2023-03-08T05:51:06.607Z,11.95
2023-03-08T05:53:33.262Z,12.27
2023-03-08T05:56:15.059Z,12.23
2023-03-08T05:58:43.714Z,11.35
2023-03-08T06:01:25.309Z,7.43
2023-03-08T06:03:54.680Z,9.50
2023-03-08T06:06:22.937Z,10.68
2023-03-08T06:08:49.697Z,11.07
2023-03-08T06:11:16.799Z,13.45
2023-03-08T06:13:43.505Z,13.40
2023-03-08T06:16:10.865Z,13.95
2023-03-08T06:18:39.497Z,14.82
2023-03-08T06:21:15.029Z,15.93
2023-03-08T06:23:42.336Z,16.13
2023-03-08T06:26:09.700Z,16.70
2023-03-08T06:28:37.769Z,16.63
2023-03-08T06:31:04.558Z,18.75
2023-03-08T06:33:33.561Z,18.17
2023-03-08T06:36:00.196Z,18.27
2023-03-08T06:38:29.896Z,19.15
2023-03-08T06:40:57.302Z,19.23
2023-03-08T06:43:24.633Z,20.13
2023-03-08T06:45:51.287Z,18.92
2023-03-08T06:48:18.087Z,19.35
2023-03-08T06:50:45.343Z,20.60
2023-03-08T06:53:12.732Z,20.27
2023-03-08T06:55:41.170Z,20.30
2023-03-08T06:58:08.550Z,21.00
2023-03-08T07:00:35.236Z,19.30
2023-03-08T07:03:02.020Z,20.13
2023-03-08T07:05:28.578Z,19.40
2023-03-08T07:07:55.100Z,20.38
2023-03-08T07:10:22.218Z,19.17
2023-03-08T07:12:51.339Z,18.75
2023-03-08T07:15:20.152Z,18.35
2023-03-08T07:17:48.238Z,18.70
2023-03-08T07:20:17.380Z,19.25
2023-03-08T07:22:44.972Z,18.88
2023-03-08T07:25:13.198Z,18.20
2023-03-08T07:27:39.777Z,19.05
2023-03-08T07:30:09.714Z,18.20
2023-03-08T07:32:39.902Z,17.70
2023-03-08T07:35:08.273Z,17.55
2023-03-08T07:37:34.900Z,17.40
2023-03-08T07:40:01.456Z,16.60
2023-03-08T07:42:28.090Z,16.95
2023-03-08T07:44:54.613Z,16.00
2023-03-08T07:47:21.836Z,15.40
2023-03-08T07:49:48.449Z,15.20
2023-03-08T07:52:15.227Z,16.23
2023-03-08T07:54:41.984Z,14.18
2023-03-08T08:02:37.838Z,16.95
2023-03-08T08:05:05.256Z,17.20
2023-03-08T08:07:31.812Z,17.75
2023-03-08T08:09:58.362Z,17.67
2023-03-08T08:12:24.922Z,18.13
2023-03-08T08:14:52.978Z,19.45
2023-03-08T08:17:20.223Z,18.50
2023-03-08T08:19:47.140Z,18.88
2023-03-08T08:22:14.743Z,19.15
2023-03-08T08:24:41.318Z,20.70
2023-03-08T08:27:07.850Z,21.65
2023-03-08T08:29:34.413Z,20.17
2023-03-08T08:32:00.952Z,21.75
2023-03-08T08:34:27.491Z,20.98
2023-03-08T08:36:54.019Z,21.67
2023-03-08T08:39:20.594Z,21.63
2023-03-08T08:41:49.320Z,23.02
2023-03-08T08:44:15.943Z,21.92
2023-03-08T08:46:42.505Z,21.85
2023-03-08T08:49:10.129Z,21.73
2023-03-08T08:51:36.777Z,21.45
2023-03-08T08:54:03.679Z,21.67
2023-03-08T08:56:30.517Z,21.33
2023-03-08T08:58:59.565Z,21.20
2023-03-08T09:01:30.106Z,20.80
2023-03-08T09:03:56.788Z,22.83
2023-03-08T09:06:25.367Z,21.65
2023-03-08T09:08:54.832Z,23.10
2023-03-08T09:11:22.328Z,23.95
2023-03-08T09:13:49.080Z,21.17
2023-03-08T09:16:24.691Z,20.60
2023-03-08T09:18:52.278Z,21.35
2023-03-08T09:21:19.457Z,22.13
2023-03-08T09:23:46.212Z,20.23
2023-03-08T09:26:12.868Z,20.25
2023-03-08T09:28:40.017Z,20.73
2023-03-08T09:31:12.168Z,20.75
2023-03-08T09:33:43.714Z,19.60
2023-03-08T09:36:14.275Z,19.27
2023-03-08T09:38:41.299Z,18.38
2023-03-08T09:41:15.848Z,21.02
2023-03-08T09:43:55.847Z,21.15
2023-03-08T09:46:36.206Z,20.92
2023-03-08T09:49:06.968Z,20.30
2023-03-08T09:51:38.410Z,21.25
2023-03-08T09:54:13.927Z,20.83
2023-03-08T09:56:50.781Z,18.35
2023-03-08T09:59:24.606Z,17.83
2023-03-08T10:01:56.180Z,11.25
2023-03-08T10:04:25.937Z,6.25
2023-03-08T10:07:18.374Z,5.07
2023-03-08T10:09:58.439Z,3.97
2023-03-08T10:13:02.734Z,3.67
2023-03-08T10:15:33.038Z,4.18
2023-03-08T10:18:13.703Z,3.00
2023-03-08T10:20:41.933Z,2.53
2023-03-08T10:23:20.680Z,2.40
2023-03-08T10:25:49.500Z,2.15
2023-03-08T10:28:19.302Z,2.15
2023-03-08T10:30:55.423Z,1.48
2023-03-08T10:33:26.661Z,1.90
2023-03-08T10:35:53.167Z,2.08
2023-03-08T10:38:19.751Z,1.80
2023-03-08T10:40:46.673Z,1.80
2023-03-08T10:43:40.466Z,1.58
2023-03-08T10:46:14.379Z,1.80
2023-03-08T10:48:41.165Z,1.40
2023-03-08T10:51:17.752Z,1.60
2023-03-08T10:53:58.657Z,1.67
2023-03-08T10:56:32.279Z,1.42
2023-03-08T10:58:59.674Z,1.77
2023-03-08T11:01:30.421Z,1.55
2023-03-08T11:04:03.194Z,1.60
2023-03-08T11:06:30.389Z,1.60
2023-03-08T11:09:00.024Z,1.40
2023-03-08T11:11:27.651Z,1.73
2023-03-08T11:13:55.367Z,1.77
2023-03-08T11:16:56.062Z,1.80
2023-03-08T11:19:37.842Z,1.35
2023-03-08T11:22:13.400Z,1.95
2023-03-08T11:24:39.915Z,1.88
2023-03-08T11:27:41.113Z,1.98
2023-03-08T11:30:27.291Z,1.50
2023-03-08T11:33:22.176Z,1.70
2023-03-08T11:36:13.798Z,1.50
2023-03-08T11:38:41.991Z,1.90
2023-03-08T11:41:46.071Z,1.58
2023-03-08T11:44:48.179Z,2.05
2023-03-08T11:47:34.158Z,1.85
2023-03-08T11:50:28.793Z,1.60
2023-03-08T11:52:58.460Z,1.63
2023-03-08T11:55:42.946Z,1.40
2023-03-08T11:58:13.599Z,1.83
2023-03-08T12:00:42.927Z,1.67
2023-03-08T12:03:13.189Z,1.60
2023-03-08T12:05:46.231Z,1.80
2023-03-08T12:08:25.414Z,1.48
2023-03-08T12:11:01.903Z,1.40
2023-03-08T12:13:42.099Z,1.50
2023-03-08T12:16:11.393Z,1.30
2023-03-08T12:18:46.737Z,1.55
2023-03-08T12:21:27.524Z,3.90
2023-03-08T12:23:57.189Z,2.22
2023-03-08T12:26:33.259Z,1.00
2023-03-08T12:29:09.908Z,1.40
2023-03-08T12:31:48.461Z,1.13
2023-03-08T12:34:26.063Z,0.93
2023-03-08T12:36:52.979Z,0.77
2023-03-08T12:39:37.852Z,0.98
2023-03-08T12:42:10.419Z,1.00
2023-03-08T12:44:38.337Z,0.93
2023-03-08T12:47:14.089Z,1.15
2023-03-08T12:49:44.586Z,1.10
2023-03-08T12:52:20.201Z,0.95
2023-03-08T12:55:09.026Z,1.17
2023-03-08T12:57:56.235Z,1.20
2023-03-08T13:00:35.575Z,1.15
2023-03-08T13:03:13.959Z,1.20
2023-03-08T13:05:45.318Z,0.95
2023-03-08T13:08:14.711Z,1.30
2023-03-08T13:10:57.508Z,1.27
2023-03-08T13:13:38.087Z,1.05
2023-03-08T13:16:08.334Z,1.05
2023-03-08T13:18:36.991Z,1.00
2023-03-08T13:21:16.433Z,1.00
2023-03-08T13:23:52.943Z,1.00
2023-03-08T13:26:35.201Z,1.17
2023-03-08T13:29:14.721Z,1.25
2023-03-08T13:31:43.395Z,1.20
2023-03-08T13:34:33.220Z,0.95
2023-03-08T13:36:59.857Z,1.30
2023-03-08T13:39:30.187Z,1.20
2023-03-08T13:42:11.511Z,1.08
2023-03-08T13:44:38.365Z,1.25
2023-03-08T13:47:18.718Z,1.50
2023-03-08T13:49:51.615Z,1.30
2023-03-08T13:52:31.017Z,1.30
2023-03-08T13:55:03.483Z,1.27
2023-03-08T13:57:36.638Z,1.20
2023-03-08T14:00:21.985Z,1.02
2023-03-08T14:02:48.758Z,1.30
2023-03-08T14:05:26.882Z,1.20
2023-03-08T14:07:57.352Z,1.20
2023-03-08T14:10:35.180Z,1.58
2023-03-08T14:13:03.495Z,1.63
2023-03-08T14:15:33.450Z,1.23
2023-03-08T14:18:00.780Z,1.52
2023-03-08T14:20:27.647Z,1.27
2023-03-08T14:22:55.136Z,1.27
2023-03-08T14:25:26.307Z,1.38
2023-03-08T14:27:53.860Z,1.30
2023-03-08T14:30:26.717Z,1.33
2023-03-08T14:33:07.169Z,1.40
2023-03-08T14:35:40.202Z,1.17
2023-03-08T14:38:21.014Z,1.30
2023-03-08T14:40:51.847Z,1.13
2023-03-08T14:43:21.817Z,1.08
2023-03-08T14:46:06.332Z,1.23
2023-03-08T14:48:37.316Z,1.40
2023-03-08T14:51:19.893Z,1.15
2023-03-08T14:54:01.783Z,1.13
2023-03-08T14:56:30.529Z,1.20
2023-03-08T14:59:00.813Z,1.50
2023-03-08T15:01:32.985Z,1.30
2023-03-08T15:03:59.833Z,1.20
2023-03-08T15:06:33.123Z,1.30
2023-03-08T15:09:00.959Z,1.25
2023-03-08T15:11:31.472Z,1.20
2023-03-08T15:14:01.802Z,0.90
2023-03-08T15:16:28.545Z,1.10
2023-03-08T15:18:55.383Z,1.02
2023-03-08T15:21:27.185Z,0.65
2023-03-08T15:23:54.759Z,1.00
2023-03-08T15:26:26.750Z,1.00
2023-03-08T15:31:20.302Z,0.80
2023-03-08T15:33:46.908Z,0.70
2023-03-08T15:36:16.865Z,0.90
2023-03-08T15:38:43.982Z,1.10
2023-03-08T15:41:14.496Z,1.10
2023-03-08T15:43:41.349Z,1.10
2023-03-08T15:46:12.356Z,1.10
2023-03-08T15:48:39.041Z,1.20
2023-03-08T15:51:05.817Z,0.95
2023-03-08T15:53:35.776Z,1.20
2023-03-08T15:56:03.188Z,1.45
2023-03-08T15:58:29.724Z,1.67
2023-03-08T16:00:56.310Z,1.50
2023-03-08T16:03:30.895Z,1.35
2023-03-08T16:05:58.714Z,1.63
2023-03-08T16:08:25.893Z,1.80
2023-03-08T16:10:52.603Z,1.13
2023-03-08T16:13:21.890Z,2.13
2023-03-08T16:15:49.395Z,1.55
2023-03-08T16:18:16.097Z,1.52
2023-03-08T16:20:42.744Z,1.88
2023-03-08T16:23:09.313Z,2.20
2023-03-08T16:25:35.841Z,1.90
2023-03-08T16:28:02.437Z,1.65
2023-03-08T16:30:29.777Z,1.70
2023-03-08T16:32:56.355Z,1.83
2023-03-08T16:35:22.953Z,1.92
2023-03-08T16:40:34.129Z,1.80
2023-03-08T16:43:00.687Z,1.70
2023-03-08T16:45:27.215Z,2.30
2023-03-08T16:47:53.727Z,2.05
2023-03-08T16:50:20.252Z,1.90
2023-03-08T16:52:46.876Z,2.17
2023-03-08T16:55:13.562Z,1.90
2023-03-08T16:57:40.343Z,1.80
2023-03-08T17:00:10.406Z,1.88
2023-03-08T17:02:36.991Z,1.50
2023-03-08T17:05:04.925Z,1.30
2023-03-08T17:07:31.856Z,1.40
2023-03-08T17:09:58.590Z,1.10
2023-03-08T17:12:25.168Z,1.05
2023-03-08T17:14:51.727Z,0.77
2023-03-08T17:17:18.251Z,0.98
2023-03-08T17:19:46.315Z,0.77
2023-03-08T17:22:12.912Z,1.08
2023-03-08T17:24:39.583Z,0.75
2023-03-08T17:27:06.199Z,0.70
2023-03-08T17:29:32.740Z,0.68
2023-03-08T17:31:59.259Z,0.90
2023-03-08T17:34:25.898Z,0.70
2023-03-08T17:36:52.588Z,0.85
2023-03-08T17:39:19.934Z,0.88
2023-03-08T17:41:46.553Z,0.90
2023-03-08T17:44:14.115Z,0.50
2023-03-08T17:46:40.736Z,1.00
2023-03-08T17:49:07.342Z,1.30
2023-03-08T17:51:34.248Z,0.90
2023-03-08T17:54:02.236Z,0.55
2023-03-08T17:56:30.459Z,0.90
2023-03-08T17:59:01.206Z,1.20
2023-03-08T18:01:30.709Z,1.10
2023-03-08T18:03:58.300Z,0.90
2023-03-08T18:06:27.466Z,0.90
2023-03-08T18:08:54.436Z,0.85
2023-03-08T18:11:21.155Z,1.30
2023-03-08T18:13:48.787Z,0.80
2023-03-08T18:16:15.520Z,1.05
2023-03-08T18:18:42.217Z,0.95
2023-03-08T18:21:13.897Z,0.70
2023-03-08T18:26:11.594Z,0.88
2023-03-08T18:28:38.497Z,0.65
2023-03-08T18:31:10.917Z,0.60
2023-03-08T18:33:37.671Z,0.70
2023-03-08T18:36:04.660Z,0.40
2023-03-08T18:38:31.217Z,0.55
2023-03-08T18:40:57.755Z,0.70
2023-03-08T18:43:25.419Z,0.50
2023-03-08T18:45:56.550Z,0.50
2023-03-08T18:48:24.218Z,0.53
2023-03-08T18:50:50.856Z,0.40
2023-03-08T18:53:17.736Z,0.50
2023-03-08T18:55:55.469Z,0.52
2023-03-08T18:58:22.144Z,0.50
2023-03-08T19:00:48.717Z,0.45
2023-03-08T19:03:15.361Z,0.50
2023-03-08T19:05:41.891Z,0.60
2023-03-08T19:08:08.508Z,0.30
2023-03-08T19:10:35.122Z,0.65
2023-03-08T19:13:01.766Z,0.75
2023-03-08T19:15:28.260Z,0.60
2023-03-08T19:17:56.371Z,0.70
2023-03-08T19:20:22.857Z,0.65
2023-03-08T19:22:49.503Z,0.90
2023-03-08T19:25:16.362Z,0.90
2023-03-08T19:27:42.893Z,0.90
2023-03-08T19:30:10.136Z,0.80
2023-03-08T19:32:36.908Z,0.90
2023-03-08T19:35:04.453Z,0.82
2023-03-08T19:37:31.486Z,1.10
2023-03-08T19:39:59.723Z,0.98
2023-03-08T19:42:27.501Z,1.13
2023-03-08T19:44:54.056Z,1.00
2023-03-08T19:47:20.875Z,1.10
2023-03-08T19:49:47.408Z,1.25
2023-03-08T19:52:14.186Z,1.23
2023-03-08T19:54:42.066Z,1.15
2023-03-08T19:57:10.302Z,1.20
2023-03-08T19:59:37.551Z,1.65
2023-03-08T20:02:05.963Z,1.40
2023-03-08T20:04:32.599Z,1.67
2023-03-08T20:07:01.135Z,1.45
2023-03-08T20:09:27.742Z,1.48
2023-03-08T20:11:58.459Z,1.80
2023-03-08T20:14:27.226Z,1.58
2023-03-08T20:16:54.731Z,1.30
2023-03-08T20:19:21.443Z,1.50
2023-03-08T20:21:48.213Z,1.30
2023-03-08T20:24:18.023Z,1.80
2023-03-08T20:26:44.870Z,1.58
2023-03-08T20:29:11.389Z,1.58
2023-03-08T20:31:37.907Z,1.58
2023-03-08T20:34:04.570Z,1.23
2023-03-08T20:36:31.158Z,1.38
2023-03-08T20:38:58.886Z,1.30
2023-03-08T20:41:25.755Z,1.67
2023-03-08T20:43:55.555Z,1.33
2023-03-08T20:46:26.027Z,1.30
2023-03-08T20:48:52.895Z,0.95
2023-03-08T20:51:21.393Z,1.05
2023-03-08T20:53:50.550Z,0.98
2023-03-08T20:56:19.747Z,0.90
2023-03-08T20:58:46.745Z,1.00
2023-03-08T21:01:19.891Z,1.20
2023-03-08T21:03:47.276Z,0.75
2023-03-08T21:06:19.832Z,0.80
2023-03-08T21:08:47.578Z,0.93
2023-03-08T21:11:14.983Z,0.90
2023-03-08T21:13:41.714Z,0.75
2023-03-08T21:16:12.667Z,0.77
2023-03-08T21:18:39.295Z,0.98
2023-03-08T21:21:06.089Z,0.90
2023-03-08T21:23:32.648Z,0.70
2023-03-08T21:26:01.147Z,0.95
2023-03-08T21:28:27.982Z,1.10
2023-03-08T21:30:54.757Z,0.88
2023-03-08T21:33:21.324Z,1.10
2023-03-08T21:35:47.914Z,1.65
2023-03-08T21:38:14.434Z,1.10
2023-03-08T21:40:42.714Z,1.33
2023-03-08T21:43:09.647Z,1.42
2023-03-08T21:45:41.811Z,1.48
2023-03-08T21:48:09.310Z,1.52
2023-03-08T21:50:39.685Z,1.10
2023-03-08T21:53:07.642Z,1.75
2023-03-08T21:56:09.698Z,1.58
2023-03-08T21:58:37.094Z,2.60
2023-03-08T22:01:05.069Z,1.65
2023-03-08T22:03:33.451Z,1.42
2023-03-08T22:06:00.770Z,1.60
2023-03-08T22:08:27.374Z,1.80
2023-03-08T22:10:54.133Z,1.90
2023-03-08T22:13:21.152Z,1.90
2023-03-08T22:15:47.732Z,1.80
2023-03-08T22:18:14.309Z,1.80
2023-03-08T22:20:40.897Z,1.75
2023-03-08T22:23:07.439Z,1.55
2023-03-08T22:25:34.049Z,1.75
2023-03-08T22:28:00.620Z,1.13
2023-03-08T22:30:27.377Z,1.00
2023-03-08T22:32:55.049Z,1.15
2023-03-08T22:35:22.344Z,1.02
2023-03-08T22:37:49.404Z,1.42
2023-03-08T22:40:18.885Z,0.95
2023-03-08T22:42:46.455Z,1.10
2023-03-08T22:45:13.191Z,1.25
2023-03-08T22:47:40.000Z,1.17
2023-03-08T22:50:07.273Z,1.40
2023-03-08T22:52:33.896Z,1.48
2023-03-08T22:55:00.568Z,1.30
2023-03-08T22:57:27.142Z,1.27
2023-03-08T22:59:58.049Z,1.40
2023-03-08T23:02:25.142Z,1.40
2023-03-08T23:04:51.732Z,1.20
2023-03-08T23:07:18.319Z,1.00
2023-03-08T23:09:44.900Z,1.20
2023-03-08T23:12:11.487Z,0.90
2023-03-08T23:14:38.054Z,1.35
2023-03-08T23:17:04.603Z,0.80
2023-03-08T23:19:31.141Z,1.00
2023-03-08T23:21:58.083Z,1.23
2023-03-08T23:24:24.618Z,1.33
2023-03-08T23:26:51.303Z,1.10
2023-03-08T23:29:17.836Z,0.95
2023-03-08T23:31:46.291Z,0.80
2023-03-08T23:34:12.927Z,1.00
2023-03-08T23:36:39.546Z,1.30
2023-03-08T23:39:06.171Z,1.20
2023-03-08T23:41:32.744Z,1.55
2023-03-08T23:44:01.193Z,1.17
2023-03-08T23:46:28.736Z,1.17
2023-03-08T23:48:57.203Z,1.10
2023-03-08T23:51:26.335Z,1.08
2023-03-08T23:53:55.194Z,1.10
2023-03-08T23:56:26.820Z,1.05
2023-03-08T23:58:58.508Z,1.40
